createdAt,value
2022-11-24T00:01:07.966Z,-1.46
2022-11-24T00:03:35.270Z,-1.62
2022-11-24T00:06:11.020Z,-1.36
2022-11-24T00:08:39.851Z,-1.29
2022-11-24T00:11:15.532Z,-0.95
2022-11-24T00:13:44.176Z,-0.77
2022-11-24T00:16:17.884Z,-0.72
2022-11-24T00:18:47.635Z,-0.72
2022-11-24T00:21:16.108Z,-0.94
2022-11-24T00:26:12.189Z,-1.40
2022-11-24T00:28:40.515Z,-1.28
2022-11-24T00:31:21.090Z,-1.33
2022-11-24T00:33:50.042Z,-1.46
2022-11-24T00:36:18.715Z,-1.70
2022-11-24T00:38:45.794Z,-1.64
2022-11-24T00:41:13.601Z,-1.66
2022-11-24T00:43:40.736Z,-1.66
2022-11-24T00:46:07.809Z,-1.76
2022-11-24T00:48:35.166Z,-1.69
2022-11-24T00:51:05.534Z,-1.85
2022-11-24T00:53:32.633Z,-1.66
2022-11-24T00:55:59.643Z,-1.58
2022-11-24T00:58:26.872Z,-1.63
2022-11-24T01:00:53.875Z,-1.41
2022-11-24T01:03:21.459Z,-1.21
2022-11-24T01:05:48.713Z,-1.23
2022-11-24T01:08:15.705Z,-1.25
2022-11-24T01:10:42.744Z,-1.15
2022-11-24T01:13:09.871Z,-1.27
2022-11-24T01:15:36.926Z,-1.49
2022-11-24T01:18:04.815Z,-1.34
2022-11-24T01:20:32.692Z,-1.33
2022-11-24T01:23:18.547Z,-1.15
2022-11-24T01:25:45.509Z,-1.26
2022-11-24T01:28:12.481Z,-1.11
2022-11-24T01:30:39.486Z,-1.05
2022-11-24T01:33:06.514Z,-1.28
2022-11-24T01:35:33.499Z,-1.47
2022-11-24T01:38:00.449Z,-1.46
2022-11-24T01:40:27.406Z,-1.53
2022-11-24T01:42:54.447Z,-1.67
2022-11-24T01:45:33.088Z,-1.53
2022-11-24T01:48:04.575Z,-1.60
2022-11-24T01:50:32.932Z,-1.48
2022-11-24T01:53:00.080Z,-1.39
2022-11-24T01:55:32.571Z,-1.54
2022-11-24T01:58:24.260Z,-1.56
2022-11-24T02:00:52.196Z,-1.73
2022-11-24T02:03:25.782Z,-1.57
2022-11-24T02:06:01.714Z,-1.53
2022-11-24T02:08:51.254Z,-1.51
2022-11-24T02:11:20.503Z,-1.68
2022-11-24T02:13:48.938Z,-1.81
2022-11-24T02:16:15.954Z,-1.50
2022-11-24T02:18:43.968Z,-1.52
2022-11-24T02:21:13.798Z,-1.63
2022-11-24T02:24:28.148Z,-1.82
2022-11-24T02:26:55.234Z,-1.54
2022-11-24T02:29:22.464Z,-1.56
2022-11-24T02:31:55.237Z,-1.70
2022-11-24T02:34:22.212Z,-1.92
2022-11-24T02:36:49.224Z,-1.94
2022-11-24T02:39:16.783Z,-1.59
2022-11-24T02:41:49.995Z,-1.82
2022-11-24T02:44:20.175Z,-2.26
2022-11-24T02:46:47.137Z,-2.18
2022-11-24T02:49:14.080Z,-2.33
2022-11-24T02:51:41.022Z,-2.08
2022-11-24T02:54:08.066Z,-1.94
2022-11-24T02:56:35.100Z,-2.22
2022-11-24T02:59:02.072Z,-2.44
2022-11-24T03:01:29.101Z,-2.04
2022-11-24T03:03:56.181Z,-2.08
2022-11-24T03:06:23.138Z,-2.09
2022-11-24T03:08:50.218Z,-1.84
2022-11-24T03:11:17.165Z,-2.14
2022-11-24T03:13:46.416Z,-1.99
2022-11-24T03:16:13.462Z,-2.20
2022-11-24T03:18:40.465Z,-2.11
2022-11-24T03:21:07.478Z,-2.20
2022-11-24T03:23:34.489Z,-2.16
2022-11-24T03:26:09.235Z,-1.80
2022-11-24T03:28:36.322Z,-1.56
2022-11-24T03:31:03.842Z,-1.77
2022-11-24T03:33:30.943Z,-1.68
2022-11-24T03:35:58.296Z,-1.78
2022-11-24T03:38:25.383Z,-1.82
2022-11-24T03:40:52.565Z,-1.81
2022-11-24T03:43:19.783Z,-1.90
2022-11-24T03:45:48.043Z,-1.70
2022-11-24T03:48:16.769Z,-1.81
2022-11-24T03:50:52.081Z,-1.78
2022-11-24T03:53:19.050Z,-2.13
2022-11-24T03:55:46.062Z,-2.00
2022-11-24T03:58:13.030Z,-2.19
2022-11-24T04:00:40.199Z,-2.07
2022-11-24T04:03:07.284Z,-1.93
2022-11-24T04:05:36.434Z,-1.95
2022-11-24T04:08:05.463Z,-1.50
2022-11-24T04:10:35.935Z,-1.64
2022-11-24T04:13:04.494Z,-1.92
2022-11-24T04:15:31.479Z,-2.04
2022-11-24T04:17:58.456Z,-2.13
2022-11-24T04:20:25.476Z,-2.28
2022-11-24T04:22:52.504Z,-1.82
2022-11-24T04:25:19.690Z,-1.69
2022-11-24T04:27:51.767Z,-2.00
2022-11-24T04:30:19.735Z,-2.10
2022-11-24T04:32:47.146Z,-2.11
2022-11-24T04:35:14.434Z,-1.85
2022-11-24T04:37:41.992Z,-1.85
2022-11-24T04:40:10.746Z,-1.98
2022-11-24T04:42:38.265Z,-1.86
2022-11-24T04:45:07.885Z,-1.92
2022-11-24T04:47:35.170Z,-2.38
2022-11-24T04:50:02.227Z,-2.01
2022-11-24T04:52:30.200Z,-1.71
2022-11-24T04:54:57.232Z,-1.56
2022-11-24T04:57:26.323Z,-1.31
2022-11-24T04:59:54.283Z,-1.02
2022-11-24T05:02:21.817Z,-0.90
2022-11-24T05:04:49.040Z,-0.76
2022-11-24T05:07:19.182Z,-1.27
2022-11-24T05:10:06.034Z,-1.01
2022-11-24T05:12:33.126Z,-0.87
2022-11-24T05:15:05.117Z,-1.15
2022-11-24T05:17:34.645Z,-1.30
2022-11-24T05:20:02.471Z,-1.24
2022-11-24T05:22:31.712Z,-1.28
2022-11-24T05:24:58.809Z,-1.51
2022-11-24T05:27:25.811Z,-1.73
2022-11-24T05:29:52.781Z,-1.78
2022-11-24T05:32:20.294Z,-1.85
2022-11-24T05:34:48.008Z,-2.01
2022-11-24T05:37:15.014Z,-1.93
2022-11-24T05:39:42.001Z,-2.09
2022-11-24T05:42:28.939Z,-1.91
2022-11-24T05:44:55.962Z,-1.58
2022-11-24T05:47:23.201Z,-1.76
2022-11-24T05:49:50.192Z,-2.20
2022-11-24T05:52:17.306Z,-2.38
2022-11-24T05:54:44.476Z,-2.08
2022-11-24T05:57:11.437Z,-1.70
2022-11-24T05:59:38.430Z,-1.98
2022-11-24T06:02:05.544Z,-1.95
2022-11-24T06:04:33.111Z,-2.18
2022-11-24T06:07:00.289Z,-2.14
2022-11-24T06:09:28.077Z,-2.06
2022-11-24T06:11:55.612Z,-2.08
2022-11-24T06:14:22.666Z,-1.97
2022-11-24T06:16:49.748Z,-2.05
2022-11-24T06:19:16.760Z,-2.27
2022-11-24T06:21:43.776Z,-2.13
2022-11-24T06:24:10.871Z,-2.43
2022-11-24T06:26:37.875Z,-2.35
2022-11-24T06:29:05.114Z,-2.24
2022-11-24T06:31:32.603Z,-2.39
2022-11-24T06:34:00.816Z,-2.30
2022-11-24T06:36:28.008Z,-2.40
2022-11-24T06:38:54.979Z,-2.62
2022-11-24T06:41:21.991Z,-2.73
2022-11-24T06:43:50.330Z,-2.96
2022-11-24T06:46:18.015Z,-3.13
2022-11-24T06:48:45.065Z,-2.84
2022-11-24T06:51:13.931Z,-3.23
2022-11-24T06:53:41.615Z,-3.29
2022-11-24T06:56:16.797Z,-3.16
2022-11-24T06:58:46.413Z,-3.23
2022-11-24T07:01:28.335Z,-3.23
2022-11-24T07:03:57.023Z,-3.17
2022-11-24T07:06:25.833Z,-3.22
2022-11-24T07:08:53.178Z,-3.47
2022-11-24T07:11:23.506Z,-3.22
2022-11-24T07:13:58.304Z,-3.16
2022-11-24T07:16:28.250Z,-2.63
2022-11-24T07:18:55.617Z,-3.08
2022-11-24T07:21:25.087Z,-3.06
2022-11-24T07:23:53.648Z,-2.76
2022-11-24T07:26:21.739Z,-2.54
2022-11-24T07:28:48.881Z,-2.67
2022-11-24T07:31:19.044Z,-2.51
2022-11-24T07:33:55.164Z,-3.15
2022-11-24T07:36:23.226Z,-3.34
2022-11-24T07:38:50.786Z,-3.44
2022-11-24T07:41:19.779Z,-3.17
2022-11-24T07:43:47.928Z,-2.69
2022-11-24T07:46:17.459Z,-2.67
2022-11-24T07:48:45.382Z,-2.75
2022-11-24T07:51:12.764Z,-2.48
2022-11-24T07:53:40.093Z,-2.15
2022-11-24T07:56:07.720Z,-2.41
2022-11-24T07:58:36.956Z,-3.08
2022-11-24T08:01:30.430Z,-2.74
2022-11-24T08:03:57.556Z,-2.46
2022-11-24T08:06:28.576Z,-2.75
2022-11-24T08:08:56.588Z,-2.96
2022-11-24T08:11:24.214Z,-2.23
2022-11-24T08:13:51.316Z,-2.74
2022-11-24T08:16:20.605Z,-2.58
2022-11-24T08:18:52.879Z,-3.31
2022-11-24T08:21:20.499Z,-2.97
2022-11-24T08:23:48.009Z,-2.60
2022-11-24T08:26:18.082Z,-2.70
2022-11-24T08:28:46.828Z,-2.44
2022-11-24T08:31:16.812Z,-2.70
2022-11-24T08:33:43.844Z,-2.38
2022-11-24T08:36:13.439Z,-2.39
2022-11-24T08:38:40.672Z,-2.51
2022-11-24T08:41:10.961Z,-3.00
2022-11-24T08:43:38.618Z,-2.91
2022-11-24T08:46:08.538Z,-3.16
2022-11-24T08:48:35.950Z,-3.42
2022-11-24T08:51:23.628Z,-3.18
2022-11-24T08:53:54.893Z,-2.80
2022-11-24T08:56:21.866Z,-2.66
2022-11-24T08:58:49.087Z,-2.47
2022-11-24T09:01:17.915Z,-2.19
2022-11-24T09:03:50.616Z,-1.98
2022-11-24T09:06:31.029Z,-2.46
2022-11-24T09:08:59.887Z,-2.90
2022-11-24T09:11:27.588Z,-3.02
2022-11-24T09:13:55.699Z,-3.18
2022-11-24T09:16:26.378Z,-3.28
2022-11-24T09:19:05.822Z,-2.94
2022-11-24T09:21:34.446Z,-2.69
2022-11-24T09:24:06.087Z,-2.81
2022-11-24T09:26:36.163Z,-3.00
2022-11-24T09:29:05.348Z,-3.03
2022-11-24T09:31:34.540Z,-3.03
2022-11-24T09:34:03.448Z,-2.72
2022-11-24T09:36:31.983Z,-2.58
2022-11-24T09:38:59.721Z,-2.54
2022-11-24T09:42:03.228Z,-2.07
2022-11-24T09:45:01.343Z,-1.66
2022-11-24T09:47:57.306Z,-1.49
2022-11-24T09:50:35.623Z,-1.62
2022-11-24T09:53:22.830Z,-2.49
2022-11-24T09:55:51.955Z,-2.85
2022-11-24T09:58:30.379Z,-3.28
2022-11-24T10:00:58.780Z,-2.96
2022-11-24T10:03:41.943Z,-2.79
2022-11-24T10:06:31.884Z,-2.85
2022-11-24T10:09:11.572Z,-2.63
2022-11-24T10:11:49.932Z,-3.14
2022-11-24T10:14:26.062Z,-3.02
2022-11-24T10:17:17.938Z,-2.83
2022-11-24T10:20:03.095Z,-2.73
2022-11-24T10:22:42.600Z,-3.30
2022-11-24T10:25:39.308Z,-3.38
2022-11-24T10:28:13.545Z,-3.04
2022-11-24T10:30:40.964Z,-3.19
2022-11-24T10:33:25.538Z,-2.96
2022-11-24T10:36:06.657Z,-2.88
2022-11-24T10:38:51.771Z,-2.95
2022-11-24T10:41:50.194Z,-2.87
2022-11-24T10:44:17.160Z,-2.98
2022-11-24T10:46:44.598Z,-2.77
2022-11-24T10:49:32.266Z,-2.73
2022-11-24T10:52:07.236Z,-2.41
2022-11-24T10:54:36.181Z,-2.20
2022-11-24T10:57:04.007Z,-2.59
2022-11-24T10:59:36.155Z,-2.37
2022-11-24T11:02:33.983Z,-2.16
2022-11-24T11:05:35.412Z,-2.21
2022-11-24T11:08:14.401Z,-2.07
2022-11-24T11:10:45.193Z,-1.95
2022-11-24T11:13:26.397Z,-1.60
2022-11-24T11:15:54.633Z,-1.68
2022-11-24T11:18:23.076Z,-1.62
2022-11-24T11:20:56.158Z,-1.77
2022-11-24T11:23:29.183Z,-2.05
2022-11-24T11:26:18.014Z,-2.21
2022-11-24T11:35:12.597Z,-2.82
2022-11-24T11:37:40.470Z,-2.90
2022-11-24T11:40:16.503Z,-2.44
2022-11-24T11:43:13.211Z,-2.48
2022-11-24T11:45:46.764Z,-2.51
2022-11-24T11:48:46.410Z,-2.30
2022-11-24T11:51:47.485Z,-2.41
2022-11-24T11:54:53.973Z,-2.95
2022-11-24T11:57:35.051Z,-3.38
2022-11-24T12:00:12.389Z,-3.14
2022-11-24T12:03:13.133Z,-2.74
2022-11-24T12:06:08.052Z,-2.99
2022-11-24T12:09:18.594Z,-3.15
2022-11-24T12:11:52.000Z,-3.10
2022-11-24T12:14:31.458Z,-3.32
2022-11-24T12:17:10.491Z,-3.50
2022-11-24T12:19:58.764Z,-3.14
2022-11-24T12:23:11.335Z,-2.99
2022-11-24T12:25:47.958Z,-3.53
2022-11-24T12:28:20.999Z,-3.62
2022-11-24T12:31:03.257Z,-3.36
2022-11-24T12:34:01.200Z,-3.45
2022-11-24T12:36:37.552Z,-3.95
2022-11-24T12:39:19.812Z,-3.69
2022-11-24T12:42:15.523Z,-3.83
2022-11-24T12:45:02.369Z,-3.82
2022-11-24T12:47:48.585Z,-3.70
2022-11-24T12:50:26.624Z,-3.96
2022-11-24T12:53:00.940Z,-3.81
2022-11-24T12:55:30.116Z,-3.45
2022-11-24T12:58:11.475Z,-3.29
2022-11-24T13:01:10.333Z,-3.19
2022-11-24T13:04:01.103Z,-3.13
2022-11-24T13:06:49.915Z,-3.55
2022-11-24T13:09:17.221Z,-3.48
2022-11-24T13:11:44.335Z,-3.47
2022-11-24T13:14:28.458Z,-3.50
2022-11-24T13:19:51.559Z,-3.03
2022-11-24T13:22:24.233Z,-2.74
2022-11-24T13:25:29.090Z,-2.67
2022-11-24T13:28:01.092Z,-2.64
2022-11-24T13:30:34.271Z,-2.76
2022-11-24T13:33:16.804Z,-3.01
2022-11-24T13:36:25.508Z,-3.49
2022-11-24T13:38:53.848Z,-3.94
2022-11-24T13:41:33.077Z,-4.29
2022-11-24T13:44:15.380Z,-3.97
2022-11-24T13:47:26.570Z,-3.61
2022-11-24T13:49:53.753Z,-3.99
2022-11-24T13:52:38.916Z,-3.62
2022-11-24T13:55:12.533Z,-3.82
2022-11-24T13:57:48.639Z,-4.31
2022-11-24T14:00:27.055Z,-4.02
2022-11-24T14:02:59.670Z,-4.18
2022-11-24T14:05:39.763Z,-4.07
2022-11-24T14:08:16.529Z,-3.81
2022-11-24T14:10:43.753Z,-3.94
2022-11-24T14:13:23.227Z,-3.85
2022-11-24T14:16:23.782Z,-3.67
2022-11-24T14:18:52.230Z,-3.64
2022-11-24T14:21:30.271Z,-4.10
2022-11-24T14:24:00.655Z,-4.06
2022-11-24T14:26:36.350Z,-4.28
2022-11-24T14:29:16.203Z,-4.29
2022-11-24T14:31:51.981Z,-3.88
2022-11-24T14:34:21.315Z,-3.94
2022-11-24T14:36:50.238Z,-4.00
2022-11-24T14:39:19.905Z,-3.78
2022-11-24T14:41:51.718Z,-3.44
2022-11-24T14:44:40.117Z,-3.60
2022-11-24T14:47:15.250Z,-4.06
2022-11-24T14:49:43.286Z,-3.96
2022-11-24T14:52:16.546Z,-3.68
2022-11-24T14:54:52.262Z,-3.83
2022-11-24T14:57:37.274Z,-3.69
2022-11-24T15:00:13.220Z,-3.80
2022-11-24T15:02:48.414Z,-3.95
2022-11-24T15:05:16.699Z,-3.77
2022-11-24T15:07:48.200Z,-3.30
2022-11-24T15:10:33.473Z,-3.46
2022-11-24T15:13:03.691Z,-4.07
2022-11-24T15:15:40.112Z,-4.56
2022-11-24T15:18:25.883Z,-4.14
2022-11-24T15:20:53.566Z,-3.98
2022-11-24T15:23:31.410Z,-3.67
2022-11-24T15:26:01.411Z,-3.45
2022-11-24T15:28:30.336Z,-3.90
2022-11-24T15:31:01.875Z,-3.60
2022-11-24T15:33:29.658Z,-3.79
2022-11-24T15:35:57.329Z,-3.79
2022-11-24T15:38:24.448Z,-3.82
2022-11-24T15:40:53.861Z,-3.67
2022-11-24T15:43:34.618Z,-3.93
2022-11-24T15:46:03.664Z,-3.85
2022-11-24T15:48:31.085Z,-3.75
2022-11-24T15:51:01.690Z,-3.65
2022-11-24T15:53:28.652Z,-3.45
2022-11-24T15:55:57.181Z,-3.41
2022-11-24T15:58:24.580Z,-3.59
2022-11-24T16:00:53.712Z,-3.63
2022-11-24T16:06:23.752Z,-3.71
2022-11-24T16:08:51.581Z,-3.52
2022-11-24T16:11:18.578Z,-3.56
2022-11-24T16:13:51.574Z,-3.77
2022-11-24T16:16:21.053Z,-3.52
2022-11-24T16:18:48.420Z,-3.31
2022-11-24T16:21:16.870Z,-3.60
2022-11-24T16:23:44.049Z,-3.51
2022-11-24T16:26:11.051Z,-3.60
2022-11-24T16:28:38.065Z,-3.57
2022-11-24T16:31:05.308Z,-3.73
2022-11-24T16:33:32.523Z,-3.69
2022-11-24T16:35:59.482Z,-3.63
2022-11-24T16:38:27.599Z,-3.29
2022-11-24T16:40:58.571Z,-3.26
2022-11-24T16:43:25.609Z,-3.53
2022-11-24T16:46:21.281Z,-3.67
2022-11-24T16:48:51.010Z,-3.60
2022-11-24T16:51:19.927Z,-3.57
2022-11-24T16:53:47.194Z,-3.48
2022-11-24T16:56:17.627Z,-3.15
2022-11-24T16:58:44.701Z,-3.45
2022-11-24T17:01:13.538Z,-3.94
2022-11-24T17:03:41.002Z,-3.91
2022-11-24T17:06:11.599Z,-4.04
2022-11-24T17:08:41.075Z,-3.85
2022-11-24T17:11:16.031Z,-3.73
2022-11-24T17:13:45.545Z,-3.96
2022-11-24T17:16:18.027Z,-4.34
2022-11-24T17:18:45.934Z,-4.56
2022-11-24T17:21:21.851Z,-4.15
2022-11-24T17:23:55.556Z,-4.44
2022-11-24T17:26:22.836Z,-4.38
2022-11-24T17:28:49.869Z,-4.41
2022-11-24T17:31:25.886Z,-4.43
2022-11-24T17:33:54.869Z,-4.37
2022-11-24T17:36:22.615Z,-3.97
2022-11-24T17:38:50.064Z,-4.17
2022-11-24T17:41:18.436Z,-4.35
2022-11-24T17:43:51.191Z,-4.28
2022-11-24T17:46:18.762Z,-4.41
2022-11-24T17:48:47.033Z,-4.00
2022-11-24T17:51:17.123Z,-3.76
2022-11-24T17:53:46.550Z,-3.98
2022-11-24T17:56:19.247Z,-3.74
2022-11-24T17:58:46.362Z,-3.88
2022-11-24T18:01:13.637Z,-3.95
2022-11-24T18:03:41.717Z,-4.16
2022-11-24T18:06:11.556Z,-4.14
2022-11-24T18:08:41.290Z,-4.22
2022-11-24T18:11:14.170Z,-3.95
2022-11-24T18:13:58.390Z,-3.66
2022-11-24T18:16:28.400Z,-3.34
2022-11-24T18:19:07.825Z,-3.65
2022-11-24T18:21:40.665Z,-4.05
2022-11-24T18:24:11.966Z,-4.03
2022-11-24T18:26:40.338Z,-3.60
2022-11-24T18:29:08.012Z,-3.17
2022-11-24T18:31:35.905Z,-3.36
2022-11-24T18:34:05.388Z,-3.51
2022-11-24T18:36:33.373Z,-4.03
2022-11-24T18:39:02.012Z,-4.01
2022-11-24T18:41:29.090Z,-3.92
2022-11-24T18:43:56.236Z,-3.99
2022-11-24T18:46:23.288Z,-3.85
2022-11-24T18:48:52.072Z,-3.97
2022-11-24T18:51:19.178Z,-3.77
2022-11-24T18:53:46.693Z,-3.55
2022-11-24T18:56:17.576Z,-3.79
2022-11-24T18:58:44.712Z,-3.69
2022-11-24T19:01:17.001Z,-3.60
2022-11-24T19:03:49.047Z,-3.53
2022-11-24T19:06:17.670Z,-3.57
2022-11-24T19:08:45.309Z,-3.81
2022-11-24T19:11:20.271Z,-3.78
2022-11-24T19:13:48.850Z,-3.45
2022-11-24T19:16:17.445Z,-3.32
2022-11-24T19:18:50.226Z,-3.54
2022-11-24T19:21:20.063Z,-3.60
2022-11-24T19:23:47.131Z,-3.74
2022-11-24T19:26:15.517Z,-3.69
2022-11-24T19:28:43.925Z,-3.48
2022-11-24T19:31:13.636Z,-3.39
2022-11-24T19:33:41.501Z,-3.74
2022-11-24T19:36:12.416Z,-3.62
2022-11-24T19:38:39.501Z,-3.77
2022-11-24T19:41:12.468Z,-3.57
2022-11-24T19:43:40.641Z,-3.85
2022-11-24T19:46:13.310Z,-3.67
2022-11-24T19:48:51.210Z,-4.34
2022-11-24T19:51:20.981Z,-4.27
2022-11-24T19:53:49.406Z,-3.98
2022-11-24T19:56:21.688Z,-3.93
2022-11-24T19:58:50.176Z,-3.83
2022-11-24T20:01:26.460Z,-3.74
2022-11-24T20:03:58.717Z,-3.76
2022-11-24T20:06:28.006Z,-3.70
2022-11-24T20:08:58.713Z,-3.89
2022-11-24T20:11:25.789Z,-3.71
2022-11-24T20:13:54.691Z,-3.88
2022-11-24T20:16:28.279Z,-3.59
2022-11-24T20:18:57.775Z,-3.29
2022-11-24T20:21:33.123Z,-3.23
2022-11-24T20:24:07.025Z,-3.52
2022-11-24T20:26:37.055Z,-3.76
2022-11-24T20:29:04.935Z,-3.83
2022-11-24T20:31:35.565Z,-3.75
2022-11-24T20:34:04.577Z,-3.75
2022-11-24T20:36:34.144Z,-3.88
2022-11-24T20:39:04.270Z,-3.78
2022-11-24T20:41:34.651Z,-3.85
2022-11-24T20:44:05.111Z,-3.60
2022-11-24T20:46:33.772Z,-3.61
2022-11-24T20:49:01.313Z,-3.70
2022-11-24T20:51:31.080Z,-3.69
2022-11-24T20:54:01.064Z,-3.91
2022-11-24T20:56:31.212Z,-4.19
2022-11-24T20:58:58.745Z,-3.91
2022-11-24T21:01:28.873Z,-3.77
2022-11-24T21:03:58.465Z,-3.61
2022-11-24T21:06:28.004Z,-3.72
2022-11-24T21:09:00.473Z,-3.78
2022-11-24T21:11:30.913Z,-3.40
2022-11-24T21:13:57.914Z,-3.60
2022-11-24T21:16:29.742Z,-4.24
2022-11-24T21:18:59.021Z,-4.01
2022-11-24T21:21:33.553Z,-3.94
2022-11-24T21:24:06.173Z,-3.80
2022-11-24T21:26:37.145Z,-3.91
2022-11-24T21:29:04.905Z,-3.82
2022-11-24T21:31:36.813Z,-3.54
2022-11-24T21:34:07.713Z,-3.50
2022-11-24T21:36:35.993Z,-3.41
2022-11-24T21:39:04.302Z,-3.15
2022-11-24T21:41:34.037Z,-3.24
2022-11-24T21:44:01.606Z,-3.52
2022-11-24T21:46:39.027Z,-3.78
2022-11-24T21:49:09.446Z,-4.07
2022-11-24T21:51:36.544Z,-3.83
2022-11-24T21:54:03.579Z,-3.72
2022-11-24T21:56:30.583Z,-3.96
2022-11-24T21:58:58.203Z,-4.17
2022-11-24T22:01:28.208Z,-4.18
2022-11-24T22:04:03.764Z,-4.16
2022-11-24T22:06:32.097Z,-4.05
2022-11-24T22:08:59.076Z,-4.04
2022-11-24T22:11:27.039Z,-4.32
2022-11-24T22:13:54.067Z,-4.57
2022-11-24T22:16:24.944Z,-4.44
2022-11-24T22:18:52.197Z,-4.22
2022-11-24T22:21:30.750Z,-3.95
2022-11-24T22:23:57.789Z,-3.97
2022-11-24T22:26:26.203Z,-4.37
2022-11-24T22:28:57.229Z,-4.61
2022-11-24T22:31:25.398Z,-4.11
2022-11-24T22:33:53.760Z,-4.00
2022-11-24T22:36:24.737Z,-3.65
2022-11-24T22:38:55.811Z,-3.47
2022-11-24T22:41:23.517Z,-3.85
2022-11-24T22:43:51.309Z,-3.78
2022-11-24T22:46:21.351Z,-3.85
2022-11-24T22:48:52.855Z,-4.13
2022-11-24T22:51:22.116Z,-3.92
2022-11-24T22:53:54.808Z,-3.68
2022-11-24T22:56:22.455Z,-3.79
2022-11-24T22:58:50.873Z,-3.81
2022-11-24T23:01:23.799Z,-3.86
2022-11-24T23:03:54.363Z,-3.92
2022-11-24T23:06:29.887Z,-3.71
2022-11-24T23:08:58.495Z,-3.67
2022-11-24T23:11:33.822Z,-3.89
2022-11-24T23:14:05.790Z,-4.26
2022-11-24T23:16:32.954Z,-4.39
2022-11-24T23:18:59.978Z,-4.42
2022-11-24T23:21:32.276Z,-4.07
2022-11-24T23:24:02.064Z,-3.99
2022-11-24T23:26:32.129Z,-4.35
2022-11-24T23:28:59.230Z,-4.16
2022-11-24T23:31:28.859Z,-4.19
2022-11-24T23:33:58.561Z,-4.23
2022-11-24T23:36:27.960Z,-4.43
2022-11-24T23:38:55.495Z,-4.32
2022-11-24T23:41:25.265Z,-4.09
2022-11-24T23:43:54.484Z,-3.80
2022-11-24T23:46:30.344Z,-3.93
2022-11-24T23:48:57.479Z,-3.97
2022-11-24T23:51:32.596Z,-4.45
2022-11-24T23:54:01.998Z,-4.45
2022-11-24T23:56:34.049Z,-4.25
2022-11-24T23:59:02.403Z,-4.11
